createdAt,value
2023-04-16T00:02:39.867Z,17.20
2023-04-16T00:05:42.784Z,16.80
2023-04-16T00:08:45.716Z,16.80
2023-04-16T00:11:48.491Z,16.80
2023-04-16T00:14:51.191Z,17.50
2023-04-16T00:17:53.978Z,19.50
2023-04-16T00:20:56.768Z,23.10
2023-04-16T00:23:59.491Z,28.20
2023-04-16T00:27:02.300Z,20.40
2023-04-16T00:30:07.327Z,23.40
2023-04-16T00:33:10.143Z,20.90
2023-04-16T00:36:12.885Z,24.70
2023-04-16T00:39:16.000Z,22.20
2023-04-16T00:42:18.758Z,21.50
2023-04-16T00:45:21.467Z,22.50
2023-04-16T00:48:24.766Z,23.50
2023-04-16T00:51:27.565Z,20.40
2023-04-16T00:54:31.802Z,22.90
2023-04-16T00:57:34.678Z,24.60
2023-04-16T01:00:37.642Z,26.70
2023-04-16T01:04:33.957Z,24.20
2023-04-16T01:09:00.509Z,24.40
2023-04-16T01:13:16.853Z,22.40
2023-04-16T01:17:40.617Z,22.00
2023-04-16T01:22:04.422Z,18.70
2023-04-16T01:26:28.160Z,22.60
2023-04-16T01:30:48.158Z,22.20
2023-04-16T01:35:04.164Z,22.00
2023-04-16T01:39:20.691Z,27.60
2023-04-16T01:43:44.429Z,36.80
2023-04-16T01:48:08.173Z,26.50
2023-04-16T01:52:31.992Z,25.30
2023-04-16T01:56:48.375Z,23.10
2023-04-16T02:01:10.774Z,26.10
2023-04-16T02:05:34.562Z,23.70
2023-04-16T02:09:58.310Z,22.60
2023-04-16T02:14:14.719Z,21.90
2023-04-16T02:18:38.509Z,24.50
2023-04-16T02:23:02.250Z,28.40
2023-04-16T02:27:26.033Z,25.90
2023-04-16T02:31:46.766Z,22.40
2023-04-16T02:36:02.724Z,20.80
2023-04-16T02:40:26.511Z,23.80
2023-04-16T02:44:50.306Z,33.40
2023-04-16T02:49:14.096Z,31.60
2023-04-16T02:53:38.034Z,35.10
2023-04-16T02:58:01.799Z,31.20
2023-04-16T03:02:25.648Z,28.30
2023-04-16T03:06:49.516Z,24.70
2023-04-16T03:11:12.065Z,27.70
2023-04-16T03:15:35.843Z,24.50
2023-04-16T03:19:52.285Z,27.60
2023-04-16T03:24:00.828Z,27.20
2023-04-16T03:28:24.607Z,24.70
2023-04-16T03:32:48.471Z,23.10
2023-04-16T03:37:12.310Z,37.40
2023-04-16T03:41:28.776Z,23.30
2023-04-16T03:45:45.155Z,23.20
2023-04-16T03:50:09.072Z,25.30
2023-04-16T03:54:32.841Z,24.30
2023-04-16T03:58:56.626Z,25.40
2023-04-16T04:03:19.407Z,28.60
2023-04-16T04:07:43.461Z,30.50
2023-04-16T04:12:07.324Z,29.50
2023-04-16T04:16:31.080Z,28.30
2023-04-16T04:20:54.891Z,26.30
2023-04-16T04:25:18.685Z,28.00
2023-04-16T04:29:42.434Z,31.70
2023-04-16T04:34:04.975Z,27.20
2023-04-16T04:38:11.280Z,32.10
2023-04-16T04:42:35.355Z,33.60
2023-04-16T04:46:59.107Z,31.20
2023-04-16T04:51:22.890Z,29.00
2023-04-16T04:55:33.977Z,26.40
2023-04-16T04:59:57.759Z,23.80
2023-04-16T05:04:21.254Z,25.70
2023-04-16T05:08:45.115Z,31.80
2023-04-16T05:13:08.902Z,30.70
2023-04-16T05:17:32.736Z,30.60
2023-04-16T05:21:55.330Z,23.40
2023-04-16T05:26:17.812Z,24.30
2023-04-16T05:30:41.574Z,22.80
2023-04-16T05:35:05.347Z,25.50
2023-04-16T05:39:29.083Z,23.40
2023-04-16T05:43:52.871Z,22.90
2023-04-16T05:48:16.652Z,20.50
2023-04-16T05:52:40.439Z,21.00
2023-04-16T05:57:04.189Z,19.30
2023-04-16T06:01:20.465Z,23.40
2023-04-16T06:05:44.018Z,25.00
2023-04-16T06:10:08.271Z,23.70
2023-04-16T06:14:31.091Z,20.50
2023-04-16T06:18:54.910Z,21.30
2023-04-16T06:23:18.671Z,17.90
2023-04-16T06:27:42.580Z,20.70
2023-04-16T06:32:04.847Z,20.90
2023-04-16T06:36:21.602Z,20.40
2023-04-16T06:40:45.495Z,20.20
2023-04-16T06:45:08.177Z,20.70
2023-04-16T06:49:31.937Z,20.70
2023-04-16T06:53:55.802Z,24.20
2023-04-16T06:58:12.277Z,19.90
2023-04-16T07:02:36.300Z,27.60
2023-04-16T07:07:00.181Z,19.60
2023-04-16T07:11:24.108Z,19.80
2023-04-16T07:15:48.071Z,20.10
2023-04-16T07:20:10.770Z,20.40
2023-04-16T07:24:34.685Z,18.40
2023-04-16T07:28:58.436Z,20.40
2023-04-16T07:33:22.229Z,17.10
2023-04-16T07:37:46.092Z,18.10
2023-04-16T07:42:18.491Z,15.80
2023-04-16T07:46:45.529Z,16.50
2023-04-16T07:51:10.538Z,20.60
2023-04-16T07:55:34.268Z,17.50
2023-04-16T07:59:48.964Z,18.90
2023-04-16T08:04:13.124Z,16.90
2023-04-16T08:08:19.542Z,17.20
2023-04-16T08:12:43.459Z,17.20
2023-04-16T08:16:59.625Z,16.40
2023-04-16T08:21:15.913Z,19.10
2023-04-16T08:25:39.700Z,20.10
2023-04-16T08:30:03.721Z,17.80
2023-04-16T08:34:18.812Z,19.70
2023-04-16T08:38:41.182Z,20.80
2023-04-16T08:43:04.995Z,20.30
2023-04-16T08:47:25.657Z,26.20
2023-04-16T08:51:49.428Z,20.40
2023-04-16T08:56:42.845Z,23.00
2023-04-16T09:01:07.762Z,21.00
2023-04-16T09:05:31.484Z,21.00
2023-04-16T09:09:55.299Z,20.40
2023-04-16T09:14:19.318Z,19.60
2023-04-16T09:18:43.224Z,17.60
2023-04-16T09:23:07.016Z,19.50
2023-04-16T09:27:30.846Z,19.80
2023-04-16T09:31:54.742Z,19.10
2023-04-16T09:36:27.727Z,20.10
2023-04-16T09:40:55.331Z,19.30
2023-04-16T09:45:19.202Z,18.80
2023-04-16T09:49:48.929Z,18.70
2023-04-16T09:54:05.365Z,19.40
2023-04-16T09:58:29.142Z,16.70
2023-04-16T10:02:53.074Z,16.90
2023-04-16T10:07:16.660Z,14.90
2023-04-16T10:11:40.552Z,18.50
2023-04-16T10:16:04.275Z,19.40
2023-04-16T10:20:28.046Z,35.60
2023-04-16T10:24:52.027Z,16.50
2023-04-16T10:29:15.794Z,18.50
2023-04-16T10:33:39.633Z,16.30
2023-04-16T10:37:56.272Z,15.50
2023-04-16T10:42:22.819Z,17.40
2023-04-16T10:47:01.571Z,22.00
2023-04-16T10:51:25.361Z,35.80
2023-04-16T10:55:49.345Z,18.20
2023-04-16T11:00:13.225Z,16.70
2023-04-16T11:04:37.260Z,18.80
2023-04-16T11:09:01.200Z,15.90
2023-04-16T11:13:17.745Z,16.80
2023-04-16T11:17:41.523Z,17.10
2023-04-16T11:22:05.482Z,16.30
2023-04-16T11:26:29.399Z,15.20
2023-04-16T11:31:05.334Z,14.00
2023-04-16T11:35:29.162Z,14.60
2023-04-16T11:39:53.022Z,14.00
2023-04-16T11:44:16.865Z,15.50
2023-04-16T11:48:46.881Z,14.50
2023-04-16T11:57:14.461Z,13.70
2023-04-16T12:01:38.287Z,14.20
2023-04-16T12:06:17.191Z,12.70
2023-04-16T12:10:47.187Z,12.50
2023-04-16T12:19:14.608Z,11.80
2023-04-16T12:23:38.342Z,12.30
2023-04-16T12:28:02.286Z,11.50
2023-04-16T12:32:38.196Z,10.40
2023-04-16T12:37:02.146Z,10.90
2023-04-16T12:41:25.952Z,10.80
2023-04-16T12:45:49.837Z,10.40
2023-04-16T12:50:05.027Z,11.30
2023-04-16T12:54:27.786Z,11.70
2023-04-16T12:58:51.676Z,9.70
2023-04-16T13:03:15.745Z,10.70
2023-04-16T13:07:32.117Z,8.90
2023-04-16T13:11:55.991Z,8.40
2023-04-16T13:16:19.948Z,10.40
2023-04-16T13:20:43.818Z,11.10
2023-04-16T13:25:07.870Z,10.90
2023-04-16T13:29:31.690Z,12.50
2023-04-16T13:33:55.562Z,11.60
2023-04-16T13:38:19.142Z,10.90
2023-04-16T13:42:43.040Z,12.00
2023-04-16T13:47:06.091Z,13.20
2023-04-16T13:51:30.195Z,12.00
2023-04-16T13:55:54.080Z,10.30
2023-04-16T14:00:17.833Z,11.10
2023-04-16T14:04:41.627Z,10.80
2023-04-16T14:09:05.519Z,11.00
2023-04-16T14:13:29.446Z,12.80
2023-04-16T14:17:53.355Z,13.70
2023-04-16T14:22:17.269Z,12.20
2023-04-16T14:26:40.886Z,12.30
2023-04-16T14:31:04.930Z,11.90
2023-04-16T14:35:29.431Z,11.40
2023-04-16T14:39:53.241Z,11.20
2023-04-16T14:44:16.994Z,10.50
2023-04-16T14:48:33.894Z,11.30
2023-04-16T14:52:56.314Z,10.00
2023-04-16T14:57:20.094Z,10.40
2023-04-16T15:01:43.997Z,10.00
2023-04-16T15:06:08.688Z,11.30
2023-04-16T15:10:32.707Z,12.20
2023-04-16T15:14:56.612Z,11.60
2023-04-16T15:19:20.388Z,10.00
2023-04-16T15:23:44.272Z,11.60
2023-04-16T15:28:08.458Z,11.20
2023-04-16T15:32:32.440Z,12.10
2023-04-16T15:36:56.285Z,12.10
2023-04-16T15:41:20.142Z,11.70
2023-04-16T15:45:44.084Z,12.40
2023-04-16T15:50:08.079Z,11.60
2023-04-16T15:54:31.938Z,10.80
2023-04-16T15:58:55.877Z,12.70
2023-04-16T16:03:19.797Z,11.60
2023-04-16T16:07:43.710Z,12.20
2023-04-16T16:12:07.611Z,11.90
2023-04-16T16:16:31.037Z,12.00
2023-04-16T16:20:54.968Z,12.10
2023-04-16T16:25:18.764Z,11.40
2023-04-16T16:29:42.613Z,12.60
2023-04-16T16:34:06.592Z,12.40
2023-04-16T16:38:30.570Z,13.60
2023-04-16T16:42:54.556Z,14.10
2023-04-16T16:47:10.869Z,14.60
2023-04-16T16:51:34.727Z,16.20
2023-04-16T16:55:58.609Z,15.80
2023-04-16T17:00:21.080Z,15.10
2023-04-16T17:04:45.009Z,15.30
2023-04-16T17:09:09.511Z,15.60
2023-04-16T17:13:33.857Z,15.30
2023-04-16T17:17:57.759Z,16.10
2023-04-16T17:22:21.592Z,14.80
2023-04-16T17:26:45.412Z,15.80
2023-04-16T17:31:09.330Z,15.80
2023-04-16T17:35:33.137Z,16.40
2023-04-16T17:39:56.949Z,16.20
2023-04-16T17:44:20.733Z,17.40
2023-04-16T17:48:44.954Z,14.70
2023-04-16T17:53:08.799Z,16.80
2023-04-16T17:57:32.773Z,18.00
2023-04-16T18:01:57.430Z,16.80
2023-04-16T18:06:12.462Z,14.60
2023-04-16T18:10:36.327Z,16.60
2023-04-16T18:15:00.167Z,17.90
2023-04-16T18:19:24.123Z,17.30
2023-04-16T18:23:48.115Z,17.70
2023-04-16T18:28:13.884Z,16.50
2023-04-16T18:32:38.457Z,23.20
2023-04-16T18:37:02.344Z,17.50
2023-04-16T18:41:27.427Z,18.30
2023-04-16T18:45:54.474Z,16.80
2023-04-16T18:50:18.390Z,20.80
2023-04-16T18:54:42.317Z,20.10
2023-04-16T18:59:06.432Z,21.50
2023-04-16T19:03:30.386Z,20.40
2023-04-16T19:07:56.987Z,19.20
2023-04-16T19:12:21.270Z,18.50
2023-04-16T19:16:45.240Z,21.20
2023-04-16T19:21:09.439Z,20.90
2023-04-16T19:25:33.404Z,22.50
2023-04-16T19:29:57.234Z,27.00
2023-04-16T19:34:21.166Z,25.10
2023-04-16T19:38:45.027Z,25.30
2023-04-16T19:43:08.885Z,25.50
2023-04-16T19:47:31.135Z,24.50
2023-04-16T19:51:55.237Z,27.00
2023-04-16T19:56:21.797Z,27.30
2023-04-16T20:00:44.783Z,25.90
2023-04-16T20:05:08.666Z,27.60
2023-04-16T20:09:32.590Z,25.70
2023-04-16T20:13:56.492Z,24.10
2023-04-16T20:18:20.300Z,23.80
2023-04-16T20:22:26.890Z,22.80
2023-04-16T20:26:50.807Z,22.20
2023-04-16T20:31:15.006Z,23.30
2023-04-16T20:35:38.986Z,25.20
2023-04-16T20:40:03.201Z,29.10
2023-04-16T20:44:27.022Z,22.40
2023-04-16T20:48:50.952Z,23.70
2023-04-16T20:53:14.762Z,22.50
2023-04-16T20:57:38.773Z,21.40
2023-04-16T21:02:02.684Z,21.00
2023-04-16T21:06:29.269Z,22.00
2023-04-16T21:10:53.012Z,21.80
2023-04-16T21:15:16.819Z,20.40
2023-04-16T21:19:40.667Z,19.40
2023-04-16T21:24:04.628Z,20.60
2023-04-16T21:28:28.454Z,20.20
2023-04-16T21:32:52.321Z,20.00
2023-04-16T21:37:16.196Z,19.20
2023-04-16T21:41:40.206Z,23.00
2023-04-16T21:46:04.158Z,21.70
2023-04-16T21:50:28.034Z,21.50
2023-04-16T21:54:51.955Z,23.20
2023-04-16T21:59:15.769Z,23.20
2023-04-16T22:03:39.801Z,22.80
2023-04-16T22:08:17.112Z,25.50
2023-04-16T22:12:47.625Z,23.20
2023-04-16T22:17:10.311Z,22.00
2023-04-16T22:21:26.970Z,26.10
2023-04-16T22:25:50.611Z,26.70
2023-04-16T22:30:14.445Z,23.50
2023-04-16T22:34:38.370Z,24.80
2023-04-16T22:39:02.165Z,22.90
2023-04-16T22:43:26.178Z,21.90
2023-04-16T22:47:50.132Z,31.50
2023-04-16T22:52:13.957Z,23.40
2023-04-16T22:56:37.839Z,25.60
2023-04-16T23:01:00.580Z,30.10
2023-04-16T23:05:24.448Z,29.80
2023-04-16T23:09:44.067Z,29.90
2023-04-16T23:14:07.914Z,42.70
2023-04-16T23:18:31.663Z,34.10
2023-04-16T23:22:55.502Z,36.60
2023-04-16T23:27:19.370Z,41.80
2023-04-16T23:31:35.923Z,45.80
2023-04-16T23:35:59.782Z,43.60
2023-04-16T23:40:13.577Z,41.80
2023-04-16T23:44:37.390Z,42.20
2023-04-16T23:49:01.190Z,54.50
2023-04-16T23:53:25.039Z,43.00
2023-04-16T23:57:49.030Z,44.30
